Charles M. Schulz Sonoma County Airport
KSTS : now visible

Airfield :











YOU CAN JOIN US ON...

 
LOGIN :

Register | Disclaimer

   EN    FR    IT 

 









Legend :    VFR   Marginal VFR   IFR   Intensive IFR   Very Intensive IFR
Visi :
Ceiling :
>= 8 km
>= 3000ft
5 to 8 km
1000 to 3000 ft
1500m to 5 km
500 to 1000 ft
800 to 1500m
200 to 500 ft
< 800m
< 200 ft
Symbols :   Thunderstorms  Fog  Heavy snow  Heavy precipitations  Wind > 20 kt






- Airport Elevation : 128 ft


KSTS - Charles M. Schulz Sonoma County

CURRENT METAR :
  • 171953Z COR 32009KT 10SM SCT250 19/03 A3011 RMK AO2 SLP191 T01940028

EXPIRED METARs :
  • 171853Z 35007KT 10SM FEW250 17/07 A3013 RMK AO2 SLP198 T01670067
  • 171753Z 36010KT 10SM SCT250 14/07 A3014 RMK AO2 SLP201 T01440067 10144 20033 50005

TAF KSTS
Valid from the 17 at 18:00 until the 18 at 18:00 UTC


171737Z 1718/1818 35007KT P6SM FEW010 SCT200 WS020/03030KT
FM171900 35008KT P6SM SCT200
FM180400 VRB04KT P6SM SCT200



MET'MAP, your aeronautical weather chart ! - Copyright ORBIFLY December 2007 - Disclaimer

ORBIFLY MET'MAP TEAM :

Programming & Development : Alexandra Zaïnal
Concept & original design : Baudouin d'Aumeries
Assistance for programming : Marc-Olivier Méhu
Technical & hardware support : Manuel Goepfert

Contact : metmap@orbifly.com




SOURCES & CREDITS :

   NOAA       Earth
Advisory